Time;durP1;ratioP1;P1;durP2;ratioP2;P2;SDS_P1;SDS_P2;PMS_P1;PMS_P2;Temp;Humidity;BMP_temperature;BMP_pressure;BME280_temperature;BME280_humidity;BME280_pressure;Samples;Min_cycle;Max_cycle;Signal;HPM_P1;HPM_P2
2022/05/24 00:01:56;;;;;;;5.47;1.52;;;;;;;18.89;45.61;99681.34;5018909;28;20042;-65
2022/05/24 00:04:22;;;;;;;2.92;1.27;;;;;;;18.89;45.36;99679.44;5011798;28;20516;-65
2022/05/24 00:06:48;;;;;;;2.20;1.67;;;;;;;18.82;45.21;99667.72;5039640;28;20524;-66
2022/05/24 00:09:13;;;;;;;1.65;1.40;;;;;;;18.88;45.18;99680.50;5020451;28;20136;-65
2022/05/24 00:11:39;;;;;;;3.78;1.45;;;;;;;18.91;45.21;99673.81;5008021;28;20112;-66
2022/05/24 00:14:04;;;;;;;1.75;1.45;;;;;;;18.87;45.39;99678.84;5008203;28;20030;-66
2022/05/24 00:16:30;;;;;;;3.92;1.70;;;;;;;18.80;45.75;99668.97;5022897;28;20030;-66
2022/05/24 00:18:56;;;;;;;3.45;2.13;;;;;;;18.81;45.74;99673.34;5007629;28;20048;-65
2022/05/24 00:21:22;;;;;;;4.40;1.67;;;;;;;18.81;45.76;99657.06;5007740;28;20120;-66
2022/05/24 00:23:47;;;;;;;3.03;1.42;;;;;;;18.81;45.88;99655.19;5007670;28;20073;-65
2022/05/24 00:26:21;;;;;;;1.90;1.70;;;;;;;18.72;46.06;99653.69;5006187;28;20484;-66
2022/05/24 00:28:46;;;;;;;4.00;1.88;;;;;;;18.74;46.07;99643.47;5007532;28;20039;-65
2022/05/24 00:31:12;;;;;;;2.33;1.83;;;;;;;18.68;46.18;99633.41;5007691;28;20034;-65
2022/05/24 00:33:37;;;;;;;4.97;1.77;;;;;;;18.80;45.88;99639.91;5007796;28;20436;-65
2022/05/24 00:36:03;;;;;;;5.53;2.47;;;;;;;18.74;46.27;99643.47;5007504;28;20030;-66
2022/05/24 00:38:36;;;;;;;4.72;1.90;;;;;;;18.69;46.39;99651.38;5022689;28;20429;-65
2022/05/24 00:41:08;;;;;;;4.13;1.90;;;;;;;18.68;46.34;99655.13;5017279;28;20029;-66
2022/05/24 00:43:49;;;;;;;3.72;1.75;;;;;;;18.69;46.27;99645.94;5007752;28;20030;-65
2022/05/24 00:46:19;;;;;;;3.05;1.80;;;;;;;18.67;46.26;99639.84;5007555;28;20025;-65
2022/05/24 00:49:35;;;;;;;2.60;1.60;;;;;;;18.69;46.16;99629.63;5007438;28;20033;-66
2022/05/24 00:52:09;;;;;;;5.93;2.03;;;;;;;18.65;46.46;99605.78;5005402;28;20501;-65
2022/05/24 00:54:35;;;;;;;2.25;1.60;;;;;;;18.69;46.32;99618.75;5013320;28;20049;-65
2022/05/24 00:57:28;;;;;;;3.92;1.50;;;;;;;18.66;46.58;99613.72;5020718;28;20045;-66
2022/05/24 01:00:02;;;;;;;3.05;1.77;;;;;;;18.64;46.77;99609.56;5007117;28;20061;-66
2022/05/24 01:02:28;;;;;;;2.00;1.58;;;;;;;18.61;46.33;99610.81;5022425;28;20453;-65
2022/05/24 01:04:53;;;;;;;5.70;1.98;;;;;;;18.60;46.67;99594.72;5010715;28;20140;-65
2022/05/24 01:07:18;;;;;;;3.10;1.67;;;;;;;18.62;46.59;99588.03;5027036;28;20133;-65
2022/05/24 01:10:10;;;;;;;3.55;2.15;;;;;;;18.58;47.08;99597.63;5026736;28;20052;-66
2022/05/24 01:12:42;;;;;;;4.15;1.70;;;;;;;18.46;47.16;99591.09;5004964;28;20041;-65
2022/05/24 01:15:09;;;;;;;3.65;1.63;;;;;;;18.50;47.36;99600.50;5005356;28;20116;-66
2022/05/24 01:17:36;;;;;;;3.05;1.73;;;;;;;18.49;47.20;99598.00;5007329;28;20062;-66
2022/05/24 01:20:04;;;;;;;3.25;1.67;;;;;;;18.44;47.60;99593.16;5021918;28;20026;-65
2022/05/24 01:22:45;;;;;;;2.50;2.00;;;;;;;18.42;47.35;99600.69;5007035;28;20678;-66
2022/05/24 01:25:22;;;;;;;2.85;1.77;;;;;;;18.32;47.55;99585.78;5024018;28;20030;-65
2022/05/24 01:27:47;;;;;;;4.10;1.80;;;;;;;18.45;47.37;99597.59;5012304;28;20044;-66
2022/05/24 01:30:14;;;;;;;3.50;1.77;;;;;;;18.38;47.64;99593.16;5026163;28;20054;-65
2022/05/24 01:38:12;;;;;;;5.03;2.22;;;;;;;18.30;48.05;99604.97;5009768;28;20045;-65
2022/05/24 01:40:39;;;;;;;3.13;2.22;;;;;;;18.15;48.16;99596.13;5017444;28;20022;-66
2022/05/24 01:43:06;;;;;;;3.13;2.10;;;;;;;18.18;47.88;99620.16;5018460;28;20052;-65
2022/05/24 01:45:38;;;;;;;2.88;2.30;;;;;;;18.22;47.97;99628.75;5029807;28;20056;-66
2022/05/24 01:48:11;;;;;;;6.15;2.60;;;;;;;18.21;48.48;99633.31;5007657;28;20034;-66
2022/05/24 01:50:39;;;;;;;3.80;2.23;;;;;;;18.20;48.62;99623.50;5009334;28;20195;-65
2022/05/24 01:53:14;;;;;;;3.15;2.20;;;;;;;18.15;48.34;99614.31;5010050;28;20042;-65
2022/05/24 01:55:45;;;;;;;3.78;2.20;;;;;;;18.18;48.48;99609.28;5031903;28;20140;-65
2022/05/24 01:58:13;;;;;;;2.13;1.80;;;;;;;18.21;48.06;99608.91;5028792;28;20578;-66
2022/05/24 02:00:46;;;;;;;4.53;2.08;;;;;;;18.26;48.10;99613.72;5030148;28;20509;-66
2022/05/24 02:03:12;;;;;;;5.05;2.58;;;;;;;18.16;48.41;99605.97;5028776;28;20571;-66
2022/05/24 02:05:41;;;;;;;3.10;2.13;;;;;;;18.18;48.33;99608.47;5028522;28;20113;-66
2022/05/24 02:08:09;;;;;;;5.18;2.58;;;;;;;18.19;48.58;99623.72;5029728;28;20825;-66
2022/05/24 02:10:46;;;;;;;2.90;2.03;;;;;;;18.18;48.31;99631.00;5048476;28;20432;-65
2022/05/24 02:13:15;;;;;;;5.25;2.80;;;;;;;18.11;48.28;99630.13;5032644;28;20516;-65
2022/05/24 02:15:45;;;;;;;5.05;2.60;;;;;;;18.16;48.27;99632.25;5044753;28;20407;-65
2022/05/24 02:18:17;;;;;;;4.90;2.45;;;;;;;18.14;48.59;99640.59;5029615;28;20537;-66
2022/05/24 02:20:45;;;;;;;7.28;2.90;;;;;;;18.15;48.28;99636.00;5029147;28;20096;-65
2022/05/24 02:23:14;;;;;;;10.27;2.78;;;;;;;18.16;48.24;99637.69;5037353;28;20469;-65
2022/05/24 02:26:00;;;;;;;7.20;2.58;;;;;;;18.17;48.47;99640.19;5047822;28;20388;-65
2022/05/24 02:28:29;;;;;;;4.82;2.55;;;;;;;18.17;47.99;99656.47;5026788;28;20131;-65
2022/05/24 02:31:03;;;;;;;5.20;2.80;;;;;;;18.18;48.41;99660.88;5029013;28;20036;-66
2022/05/24 02:33:29;;;;;;;7.03;3.08;;;;;;;18.19;48.29;99668.00;5029383;28;20029;-66
2022/05/24 02:35:54;;;;;;;3.03;2.25;;;;;;;18.18;48.05;99676.34;5027693;28;20037;-65
2022/05/24 02:38:21;;;;;;;5.65;2.20;;;;;;;18.21;48.46;99703.09;5033504;28;20033;-65
2022/05/24 02:43:31;;;;;;;6.55;2.80;;;;;;;18.25;54.92;99759.47;5048918;28;20440;-66
2022/05/24 02:45:57;;;;;;;6.72;2.40;;;;;;;18.24;54.13;99773.25;5047113;28;20044;-66
2022/05/24 02:48:22;;;;;;;3.67;2.35;;;;;;;18.20;55.45;99783.66;5061290;28;20601;-67
2022/05/24 02:50:48;;;;;;;3.78;3.13;;;;;;;18.02;58.42;99745.28;5047202;28;20537;-68
2022/05/24 02:53:13;;;;;;;14.77;3.65;;;;;;;18.02;61.40;99754.28;5035752;28;20063;-68
2022/05/24 02:55:39;;;;;;;6.72;2.95;;;;;;;18.06;63.86;99752.03;5029618;28;20042;-67
2022/05/24 02:58:05;;;;;;;5.13;3.00;;;;;;;18.04;65.98;99759.53;5008958;28;20046;-66
2022/05/24 03:00:31;;;;;;;6.47;3.40;;;;;;;17.97;67.22;99751.31;5008904;28;20033;-67
2022/05/24 03:02:57;;;;;;;8.52;3.65;;;;;;;17.88;68.97;99743.50;5024068;28;20017;-67
2022/05/24 03:05:24;;;;;;;6.18;2.97;;;;;;;17.87;68.49;99748.09;5008788;28;20049;-66
2022/05/24 03:10:34;;;;;;;;;;;;;;;17.82;73.66;99744.28;5008739;28;20056;-67
2022/05/24 03:15:45;;;;;;;5.82;3.67;;;;;;;17.71;73.27;99725.84;5008985;28;20046;-67
2022/05/24 03:18:13;;;;;;;6.30;3.15;;;;;;;17.67;71.82;99727.28;5015731;28;20025;-67
2022/05/24 03:20:40;;;;;;;9.82;4.00;;;;;;;17.58;73.06;99709.44;5043411;28;20037;-67
2022/05/24 03:23:05;;;;;;;11.93;4.05;;;;;;;17.48;72.54;99690.78;5009633;28;20405;-67
2022/05/24 03:25:32;;;;;;;10.88;4.00;;;;;;;17.48;72.11;99670.97;5018785;28;20032;-67
2022/05/24 03:27:59;;;;;;;7.65;4.93;;;;;;;17.38;75.11;99640.59;5036672;28;20046;-67
2022/05/24 03:30:25;;;;;;;12.88;6.25;;;;;;;17.24;78.45;99620.66;5028161;28;20034;-67
2022/05/24 03:32:51;;;;;;;9.82;4.78;;;;;;;17.15;77.55;99640.78;5027897;28;20040;-67
2022/05/24 03:35:17;;;;;;;8.38;4.20;;;;;;;17.09;79.01;99659.69;5027888;28;20037;-67
2022/05/24 03:37:42;;;;;;;7.07;3.40;;;;;;;17.02;80.75;99656.06;5028367;28;20469;-67
2022/05/24 03:40:09;;;;;;;5.97;3.50;;;;;;;16.94;78.63;99623.69;5028305;28;20120;-67
2022/05/24 03:42:35;;;;;;;6.63;3.25;;;;;;;16.87;79.01;99588.41;5009956;28;20034;-67
2022/05/24 03:45:02;;;;;;;7.15;2.92;;;;;;;16.79;77.36;99588.50;5008391;28;20532;-67
2022/05/24 03:47:28;;;;;;;3.15;2.85;;;;;;;16.69;78.94;99625.03;5021545;28;20038;-67
2022/05/24 03:49:53;;;;;;;3.95;3.13;;;;;;;16.73;77.72;99669.69;5011141;28;20033;-67
2022/05/24 03:52:19;;;;;;;7.25;4.38;;;;;;;16.71;80.20;99720.50;5022627;28;20024;-67
2022/05/24 03:54:44;;;;;;;6.25;3.92;;;;;;;16.67;81.17;99746.28;5020769;28;20060;-67
2022/05/24 03:59:54;;;;;;;6.65;3.67;;;;;;;16.57;85.18;99803.38;5032336;28;20092;-67
2022/05/24 04:02:19;;;;;;;7.32;4.13;;;;;;;16.54;84.58;99825.41;5039644;28;20044;-67
2022/05/24 04:04:45;;;;;;;8.27;4.18;;;;;;;16.47;84.64;99819.06;5047507;28;20108;-66
2022/05/24 04:07:10;;;;;;;4.93;3.47;;;;;;;16.46;84.09;99824.66;5039687;28;20483;-67
2022/05/24 04:09:35;;;;;;;5.70;4.03;;;;;;;16.42;88.01;99818.75;5027603;28;20489;-67
2022/05/24 04:12:02;;;;;;;6.90;3.70;;;;;;;16.38;88.62;99833.66;5043809;28;20529;-66
2022/05/24 04:14:32;;;;;;;6.80;3.78;;;;;;;16.33;87.82;99827.13;5027438;28;20125;-67
2022/05/24 04:16:58;;;;;;;8.73;4.38;;;;;;;16.27;87.85;99839.53;5027127;28;20527;-66
2022/05/24 04:19:24;;;;;;;6.95;4.30;;;;;;;16.22;90.02;99844.63;5037123;28;20032;-67
2022/05/24 04:21:50;;;;;;;6.40;4.20;;;;;;;16.18;91.31;99864.97;5040794;28;20041;-66
2022/05/24 04:24:15;;;;;;;6.63;4.88;;;;;;;16.12;90.05;99856.75;5030572;28;20021;-67
2022/05/24 04:26:41;;;;;;;6.43;4.50;;;;;;;16.07;89.98;99864.56;5047276;28;20029;-67
2022/05/24 04:29:07;;;;;;;6.85;4.20;;;;;;;15.98;91.61;99892.66;5047032;28;20025;-66
2022/05/24 04:31:32;;;;;;;5.43;4.20;;;;;;;16.00;90.42;99915.84;5028288;28;20512;-66
2022/05/24 04:33:58;;;;;;;6.53;4.20;;;;;;;15.96;91.39;99938.00;5057982;28;20121;-66
2022/05/24 04:36:23;;;;;;;6.38;4.00;;;;;;;15.94;89.19;99939.00;5027289;28;20086;-67
2022/05/24 04:38:48;;;;;;;7.15;4.40;;;;;;;15.77;89.99;99893.34;5027204;28;20029;-67
2022/05/24 04:43:58;;;;;;;7.88;5.22;;;;;;;15.60;96.22;99783.59;5046961;28;20071;-66
2022/05/24 04:46:23;;;;;;;8.95;4.80;;;;;;;15.65;95.13;99755.03;5047007;28;20060;-67
2022/05/24 04:48:49;;;;;;;8.82;5.05;;;;;;;15.65;93.94;99752.31;5043231;28;20488;-67
2022/05/24 04:51:14;;;;;;;7.20;5.00;;;;;;;15.72;95.21;99731.63;5028682;28;20028;-67
2022/05/24 04:53:40;;;;;;;8.43;4.97;;;;;;;15.68;93.95;99705.97;5027328;28;20040;-66
2022/05/24 04:56:05;;;;;;;9.00;5.35;;;;;;;15.69;94.61;99704.97;5014802;28;20053;-67
2022/05/24 04:58:31;;;;;;;8.73;4.60;;;;;;;15.73;94.23;99744.13;5006789;28;20446;-67
2022/05/24 05:00:56;;;;;;;7.60;5.45;;;;;;;15.75;95.20;99755.63;5023366;28;20030;-67
2022/05/24 05:03:22;;;;;;;7.22;5.13;;;;;;;15.76;97.96;99732.94;5011333;28;20034;-66
2022/05/24 05:05:50;;;;;;;9.55;5.53;;;;;;;15.71;97.88;99737.22;5009906;28;20109;-66
2022/05/24 05:08:16;;;;;;;10.05;4.85;;;;;;;15.75;96.89;99762.88;5010619;28;20065;-66
2022/05/24 05:10:42;;;;;;;6.82;5.20;;;;;;;15.72;96.58;99774.91;5012229;28;20128;-67
2022/05/24 05:13:08;;;;;;;7.55;5.20;;;;;;;15.73;97.88;99765.75;5009293;28;20116;-67
2022/05/24 05:15:34;;;;;;;9.93;5.47;;;;;;;15.74;98.13;99780.94;5024039;28;20440;-67
2022/05/24 05:18:11;;;;;;;10.30;5.97;;;;;;;15.74;99.37;99780.94;5019344;28;20029;-67
2022/05/24 05:20:41;;;;;;;7.82;5.25;;;;;;;15.73;96.72;99783.84;5030533;28;20492;-67
2022/05/24 05:23:09;;;;;;;9.70;6.00;;;;;;;15.74;96.85;99805.28;5045592;28;20106;-67
2022/05/24 05:25:34;;;;;;;7.38;5.65;;;;;;;15.76;97.33;99821.31;5013894;28;20021;-66
2022/05/24 05:28:00;;;;;;;7.95;5.32;;;;;;;15.72;96.95;99828.13;5010635;28;20494;-66
2022/05/24 05:33:10;;;;;;;10.05;5.43;;;;;;;15.75;98.28;99835.88;5010126;28;20041;-67
2022/05/24 05:35:36;;;;;;;11.30;5.93;;;;;;;15.75;99.45;99828.63;5009886;28;20120;-66
2022/05/24 05:38:01;;;;;;;10.35;5.88;;;;;;;15.77;100.00;99823.03;5020158;28;20094;-66
2022/05/24 05:40:27;;;;;;;9.05;6.18;;;;;;;15.78;99.60;99833.66;5026502;28;20567;-66
2022/05/24 05:42:52;;;;;;;10.55;6.03;;;;;;;15.77;99.72;99834.66;5006875;28;20033;-65
2022/05/24 05:45:18;;;;;;;11.77;6.43;;;;;;;15.75;100.00;99841.28;5022905;28;20492;-66
2022/05/24 05:47:43;;;;;;;13.75;6.57;;;;;;;15.77;100.00;99842.78;5018101;28;20048;-66
2022/05/24 05:50:09;;;;;;;8.70;6.28;;;;;;;15.73;100.00;99827.94;5029465;28;20484;-66
2022/05/24 05:52:35;;;;;;;11.85;6.75;;;;;;;15.76;100.00;99835.69;5021691;28;20049;-67
2022/05/24 05:55:01;;;;;;;9.57;6.53;;;;;;;15.80;100.00;99839.72;5043995;28;20155;-66
2022/05/24 05:57:26;;;;;;;11.75;6.15;;;;;;;15.80;100.00;99833.47;5014424;28;20485;-66
2022/05/24 05:59:53;;;;;;;10.63;6.97;;;;;;;15.77;99.12;99831.97;5013458;28;20090;-66
2022/05/24 06:02:18;;;;;;;12.02;5.93;;;;;;;15.75;98.08;99825.91;5026705;28;20037;-65
2022/05/24 06:04:44;;;;;;;7.57;5.57;;;;;;;15.73;98.36;99830.66;5040623;28;20038;-66
2022/05/24 06:07:10;;;;;;;8.25;5.82;;;;;;;15.71;98.05;99818.34;5029009;28;20550;-66
2022/05/24 06:09:36;;;;;;;10.73;6.45;;;;;;;15.74;98.08;99826.91;5016049;28;20056;-66
2022/05/24 06:12:03;;;;;;;7.60;6.03;;;;;;;15.70;98.23;99816.63;5016256;28;20037;-66
2022/05/24 06:14:29;;;;;;;8.85;6.15;;;;;;;15.74;98.79;99815.28;5028322;28;20033;-66
2022/05/24 06:16:54;;;;;;;6.15;5.53;;;;;;;15.69;99.27;99818.53;5022355;28;20401;-66
2022/05/24 06:19:20;;;;;;;9.70;5.90;;;;;;;15.67;97.71;99820.53;5029395;28;20040;-66
2022/05/24 06:21:46;;;;;;;12.18;6.50;;;;;;;15.71;98.90;99821.03;5018059;28;20032;-67
2022/05/24 06:24:11;;;;;;;7.70;6.45;;;;;;;15.72;99.58;99820.88;5016771;28;20026;-67
2022/05/24 06:26:37;;;;;;;9.02;6.13;;;;;;;15.68;99.83;99806.00;5020919;28;20033;-67
2022/05/24 06:29:04;;;;;;;8.93;6.65;;;;;;;15.69;99.81;99807.69;5052876;28;20025;-68
2022/05/24 06:31:30;;;;;;;9.35;6.55;;;;;;;15.64;99.61;99804.69;5016817;28;20029;-67
2022/05/24 06:33:55;;;;;;;9.40;6.32;;;;;;;15.63;99.87;99805.72;5011507;28;20140;-67
2022/05/24 06:36:21;;;;;;;8.02;6.10;;;;;;;15.72;100.00;99820.00;5017187;28;20033;-67
2022/05/24 06:38:46;;;;;;;7.82;5.85;;;;;;;15.74;100.00;99826.09;5022111;28;20026;-68
2022/05/24 06:41:12;;;;;;;6.88;6.18;;;;;;;15.77;100.00;99837.38;5019914;28;20061;-66
2022/05/24 06:43:37;;;;;;;9.57;6.50;;;;;;;15.74;100.00;99835.03;5010972;28;20609;-66
2022/05/24 06:46:09;;;;;;;10.85;5.97;;;;;;;15.75;99.68;99833.19;5012094;28;20029;-66
2022/05/24 06:48:43;;;;;;;8.35;5.93;;;;;;;15.78;99.69;99830.13;5023426;28;20083;-66
2022/05/24 06:51:17;;;;;;;9.82;6.60;;;;;;;15.76;98.65;99835.69;5012994;28;20044;-66
2022/05/24 06:53:44;;;;;;;10.75;6.18;;;;;;;15.78;99.46;99836.38;5016600;28;20207;-67
2022/05/24 06:56:10;;;;;;;7.03;6.10;;;;;;;15.79;99.08;99842.59;5012906;28;20064;-66
2022/05/24 06:58:36;;;;;;;7.65;6.03;;;;;;;15.83;98.66;99850.19;5023417;28;20026;-67
2022/05/24 07:03:48;;;;;;;8.20;5.78;;;;;;;15.87;100.00;99854.19;5008839;28;20032;-66
2022/05/24 07:06:15;;;;;;;9.75;6.97;;;;;;;15.86;100.00;99841.72;5008605;28;20045;-66
2022/05/24 07:08:45;;;;;;;8.65;5.90;;;;;;;15.90;99.70;99845.72;5028324;28;20021;-67
2022/05/24 07:11:12;;;;;;;6.93;5.57;;;;;;;15.93;99.18;99845.38;5019661;28;20091;-67
2022/05/24 07:13:38;;;;;;;7.45;6.00;;;;;;;15.93;98.71;99837.25;5018239;28;20465;-67
2022/05/24 07:16:04;;;;;;;9.15;5.25;;;;;;;15.96;98.51;99849.56;5009189;28;20557;-67
2022/05/24 07:18:30;;;;;;;12.10;6.22;;;;;;;15.96;97.90;99843.34;5022762;28;20104;-66
2022/05/24 07:20:55;;;;;;;6.97;5.25;;;;;;;15.97;97.57;99831.50;5022531;28;20017;-66
2022/05/24 07:23:25;;;;;;;6.35;4.90;;;;;;;15.96;97.07;99810.88;5023758;28;20026;-67
2022/05/24 07:25:51;;;;;;;9.27;5.25;;;;;;;15.97;96.51;99818.81;5015550;28;20043;-68
2022/05/24 07:28:18;;;;;;;7.63;4.88;;;;;;;15.92;96.66;99812.28;5016638;28;20030;-68
2022/05/24 07:30:44;;;;;;;10.68;4.75;;;;;;;15.94;97.16;99809.19;5008073;28;20121;-68
2022/05/24 07:33:10;;;;;;;7.88;4.80;;;;;;;15.93;96.68;99801.28;5008283;28;20071;-68
2022/05/24 07:35:37;;;;;;;5.47;4.90;;;;;;;16.03;97.85;99809.97;5009523;28;20564;-67
2022/05/24 07:38:06;;;;;;;5.53;4.40;;;;;;;16.10;97.57;99810.94;5020410;28;20381;-68
2022/05/24 07:46:06;;;;;;;5.40;4.20;;;;;;;16.00;94.67;99818.47;5024397;28;20766;-67
2022/05/24 07:48:34;;;;;;;5.25;3.92;;;;;;;16.02;94.96;99819.09;5008306;28;20065;-66
2022/05/24 07:51:00;;;;;;;5.97;4.32;;;;;;;16.01;94.23;99816.56;5006252;28;20088;-67
2022/05/24 07:53:26;;;;;;;8.23;4.15;;;;;;;15.97;94.30;99831.50;5023020;28;20577;-67
2022/05/24 07:55:54;;;;;;;7.93;4.30;;;;;;;16.00;94.21;99828.44;5057255;28;20068;-67
2022/05/24 07:58:20;;;;;;;8.15;4.25;;;;;;;16.01;94.57;99836.38;5027357;28;20033;-67
2022/05/24 08:00:46;;;;;;;8.02;4.75;;;;;;;15.94;95.02;99828.13;5027611;28;20029;-66
2022/05/24 08:03:12;;;;;;;6.15;4.20;;;;;;;15.96;94.36;99832.53;5011828;28;20036;-67
2022/05/24 08:05:38;;;;;;;4.47;4.03;;;;;;;15.93;93.35;99831.84;5007695;28;20037;-67
2022/05/24 08:08:06;;;;;;;7.68;4.05;;;;;;;15.93;92.88;99839.97;5019141;28;20036;-67
2022/05/24 08:10:32;;;;;;;6.50;4.35;;;;;;;15.93;93.01;99839.16;5010670;28;20045;-66
2022/05/24 08:12:58;;;;;;;4.63;3.90;;;;;;;16.00;92.37;99844.66;5007213;28;20485;-67
2022/05/24 08:15:25;;;;;;;6.30;4.07;;;;;;;15.99;93.19;99840.28;5007716;28;20053;-67
2022/05/24 08:17:51;;;;;;;5.43;3.85;;;;;;;16.03;92.35;99847.00;5026927;28;20030;-66
2022/05/24 08:20:18;;;;;;;4.38;3.97;;;;;;;16.04;92.53;99848.69;5025674;28;20063;-66
2022/05/24 08:22:43;;;;;;;5.05;3.97;;;;;;;16.11;93.10;99855.91;5019768;28;20025;-66
2022/05/24 08:25:10;;;;;;;4.95;4.43;;;;;;;16.12;93.26;99852.16;5022439;28;21906;-66
2022/05/24 08:27:36;;;;;;;6.30;4.22;;;;;;;16.11;92.56;99855.91;5012052;28;20037;-66
2022/05/24 08:30:02;;;;;;;8.75;3.80;;;;;;;16.12;91.50;99851.34;5016799;28;20096;-66
2022/05/24 08:32:28;;;;;;;5.65;4.25;;;;;;;16.17;91.27;99863.28;5027097;28;20041;-66
2022/05/24 08:34:53;;;;;;;4.72;4.05;;;;;;;16.19;90.60;99863.97;5015471;28;20034;-67
2022/05/24 08:37:19;;;;;;;5.45;3.65;;;;;;;16.22;90.94;99866.28;5011510;28;20433;-66
2022/05/24 08:39:44;;;;;;;5.00;3.25;;;;;;;16.22;91.59;99865.47;5011295;28;20048;-66
2022/05/24 08:42:55;;;;;;;5.50;3.38;;;;;;;16.26;90.61;99873.03;5011221;28;20469;-66
2022/05/24 08:48:48;;;;;;;5.80;4.00;;;;;;;16.30;90.62;99868.94;5008472;28;20092;-66
2022/05/24 08:51:27;;;;;;;6.45;3.67;;;;;;;16.34;91.21;99880.25;5008237;28;20057;-66
2022/05/24 08:53:56;;;;;;;5.90;4.10;;;;;;;16.29;91.21;99864.56;5022484;28;20041;-66
2022/05/24 08:56:29;;;;;;;6.00;3.95;;;;;;;16.39;91.05;99867.00;5029767;28;20184;-66
2022/05/24 08:59:12;;;;;;;4.93;4.10;;;;;;;16.33;90.33;99852.34;5010922;28;20049;-66
2022/05/24 09:01:41;;;;;;;7.68;4.28;;;;;;;16.44;91.00;99860.03;5011199;28;20022;-66
2022/05/24 09:04:08;;;;;;;7.53;3.92;;;;;;;16.49;91.18;99873.03;5010613;28;20057;-66
2022/05/24 09:06:43;;;;;;;6.70;3.78;;;;;;;16.48;89.77;99865.94;5010764;28;20441;-66
2022/05/24 09:09:37;;;;;;;5.03;3.47;;;;;;;16.58;89.81;99861.09;5010483;28;20425;-66
2022/05/24 09:12:29;;;;;;;6.88;4.00;;;;;;;16.64;90.41;99855.78;5023789;28;20038;-67
2022/05/24 09:15:09;;;;;;;3.90;3.50;;;;;;;16.72;90.54;99862.97;5010348;28;20033;-66
2022/05/24 09:17:47;;;;;;;6.53;4.03;;;;;;;16.72;90.12;99847.59;5010546;28;20060;-66
2022/05/24 09:20:26;;;;;;;9.45;3.38;;;;;;;16.91;89.25;99851.59;5024546;28;20026;-66
2022/05/24 09:23:04;;;;;;;4.97;3.28;;;;;;;16.93;87.91;99833.31;5030263;28;20033;-66
2022/05/24 09:25:30;;;;;;;4.25;2.70;;;;;;;17.13;86.82;99851.53;5030549;28;20048;-66
2022/05/24 09:27:55;;;;;;;4.95;2.85;;;;;;;17.18;86.36;99848.22;5061793;28;20060;-66
2022/05/24 09:30:21;;;;;;;2.83;2.60;;;;;;;17.34;86.20;99859.72;5015334;28;20088;-66
2022/05/24 09:32:46;;;;;;;3.85;3.03;;;;;;;17.46;85.42;99855.53;5010419;28;20022;-66
2022/05/24 09:35:18;;;;;;;8.05;2.85;;;;;;;17.57;84.47;99867.75;5003890;28;20048;-66
2022/05/24 09:37:47;;;;;;;4.85;2.22;;;;;;;17.66;82.17;99858.47;5009752;28;20030;-66
2022/05/24 09:40:20;;;;;;;3.53;2.20;;;;;;;17.80;81.39;99863.03;5025229;28;20034;-66
2022/05/24 09:42:45;;;;;;;3.65;2.20;;;;;;;17.90;78.76;99855.41;5010239;28;20115;-66
2022/05/24 09:45:20;;;;;;;5.18;2.55;;;;;;;17.96;79.22;99844.63;5025316;28;20056;-66
2022/05/24 09:47:48;;;;;;;3.17;2.65;;;;;;;18.06;78.12;99850.56;5029961;28;20029;-66
2022/05/24 09:50:16;;;;;;;4.15;2.53;;;;;;;18.15;76.76;99845.84;5018705;28;20041;-66
2022/05/24 09:53:03;;;;;;;2.13;1.88;;;;;;;18.27;75.97;99844.28;5012470;28;20064;-66
2022/05/24 09:55:53;;;;;;;4.55;2.30;;;;;;;18.41;74.03;99854.25;5034814;28;20045;-66
2022/05/24 09:58:21;;;;;;;4.88;2.45;;;;;;;18.49;74.04;99850.56;5049529;28;20037;-66
2022/05/24 10:01:09;;;;;;;5.55;2.17;;;;;;;18.56;74.71;99857.72;5049017;28;20448;-66
2022/05/24 10:03:38;;;;;;;5.03;2.38;;;;;;;18.59;73.08;99846.47;5030295;28;20033;-66
2022/05/24 10:06:04;;;;;;;7.65;2.38;;;;;;;18.71;73.00;99854.91;5040670;28;20033;-66
2022/05/24 10:08:54;;;;;;;5.40;2.25;;;;;;;18.76;72.76;99856.00;5046961;28;20039;-67
2022/05/24 10:11:40;;;;;;;2.00;1.80;;;;;;;18.82;71.72;99868.78;5040577;28;20378;-66
2022/05/24 10:14:20;;;;;;;4.60;1.98;;;;;;;18.88;71.38;99862.56;5029241;28;20635;-67
2022/05/24 10:17:00;;;;;;;2.05;1.83;;;;;;;18.91;70.59;99856.75;5029568;28;20042;-66
2022/05/24 10:19:38;;;;;;;6.50;1.90;;;;;;;18.98;70.51;99854.91;5044293;28;20061;-66
2022/05/24 10:22:30;;;;;;;4.75;2.10;;;;;;;18.98;69.14;99852.19;5029211;28;20584;-66
2022/05/24 10:25:21;;;;;;;3.53;1.73;;;;;;;19.12;66.98;99863.97;5048818;28;20159;-67
2022/05/24 10:27:59;;;;;;;1.63;1.52;;;;;;;19.22;66.30;99851.69;5047707;28;20055;-67
2022/05/24 10:30:29;;;;;;;1.98;1.80;;;;;;;19.30;67.67;99854.28;5048872;28;20033;-66
2022/05/24 10:39:03;;;;;;;2.80;1.88;;;;;;;19.57;67.22;99853.34;5028921;28;20063;-66
2022/05/24 10:41:49;;;;;;;1.70;1.60;;;;;;;19.69;64.97;99851.72;5028904;28;20083;-65
2022/05/24 10:44:23;;;;;;;3.75;1.67;;;;;;;19.75;64.91;99866.38;5043907;28;20017;-64
2022/05/24 10:47:01;;;;;;;2.53;1.67;;;;;;;19.88;64.60;99866.44;5028688;28;20041;-65
2022/05/24 10:49:56;;;;;;;2.35;1.70;;;;;;;19.97;63.06;99860.59;5028563;28;20052;-65
2022/05/24 10:52:47;;;;;;;2.00;1.77;;;;;;;20.14;63.08;99861.94;5028927;28;20436;-65
2022/05/24 10:55:23;;;;;;;3.50;1.67;;;;;;;20.18;63.54;99857.72;5049997;28;20053;-65
2022/05/24 10:58:09;;;;;;;3.40;2.00;;;;;;;20.23;63.68;99861.72;5028524;28;20040;-65
2022/05/24 11:00:40;;;;;;;2.78;1.60;;;;;;;20.34;63.11;99863.84;5028773;28;20036;-65
2022/05/24 11:03:19;;;;;;;4.40;1.77;;;;;;;20.46;61.20;99873.91;5028470;28;20509;-65
2022/05/24 11:05:52;;;;;;;2.47;1.90;;;;;;;20.46;60.96;99865.72;5028482;28;20048;-66
2022/05/24 11:08:41;;;;;;;4.30;1.70;;;;;;;20.63;60.42;99875.16;5028482;28;20036;-66
2022/05/24 11:11:14;;;;;;;2.65;1.70;;;;;;;20.63;60.64;99861.53;5028094;28;20436;-66
2022/05/24 11:13:51;;;;;;;4.57;1.90;;;;;;;20.66;61.21;99874.72;5028391;28;20074;-66
2022/05/24 11:16:29;;;;;;;2.28;1.90;;;;;;;20.68;61.02;99863.63;5028328;28;20625;-66
2022/05/24 11:18:55;;;;;;;2.95;1.73;;;;;;;20.65;61.21;99866.75;5027929;28;20033;-66
2022/05/24 11:21:34;;;;;;;4.32;1.80;;;;;;;20.71;61.03;99863.19;5028412;28;20653;-66
2022/05/24 11:24:41;;;;;;;5.03;1.70;;;;;;;20.70;60.79;99867.81;5028322;28;20100;-66
2022/05/24 11:27:11;;;;;;;3.05;2.03;;;;;;;20.72;60.27;99856.69;5028012;28;20128;-66
2022/05/24 11:29:44;;;;;;;3.00;1.52;;;;;;;20.86;59.85;99870.09;5028064;28;20091;-66
2022/05/24 11:32:11;;;;;;;4.35;1.95;;;;;;;20.86;59.75;99867.38;5043263;28;20033;-64
2022/05/24 11:34:58;;;;;;;4.38;2.00;;;;;;;20.87;59.13;99860.03;5043070;28;20112;-64
2022/05/24 11:37:33;;;;;;;3.08;1.80;;;;;;;20.89;59.59;99852.50;5028142;28;20048;-65
2022/05/24 11:40:36;;;;;;;3.00;2.08;;;;;;;20.98;59.28;99845.78;5028280;28;20025;-64
2022/05/24 11:43:09;;;;;;;3.35;1.45;;;;;;;21.02;59.24;99855.25;5028294;28;20033;-65
2022/05/24 11:45:38;;;;;;;4.00;1.80;;;;;;;20.95;59.54;99843.47;5028206;28;20037;-68
2022/05/24 11:48:06;;;;;;;3.20;1.90;;;;;;;20.90;60.34;99841.38;5027270;28;20026;-64
2022/05/24 11:50:42;;;;;;;2.83;1.45;;;;;;;20.87;59.84;99843.69;5043145;28;20123;-65
2022/05/24 11:53:17;;;;;;;1.90;1.60;;;;;;;20.89;59.90;99845.13;5059369;28;20080;-65
2022/05/24 11:55:54;;;;;;;4.70;2.25;;;;;;;20.85;60.11;99832.16;5041625;28;20049;-65
2022/05/24 11:58:20;;;;;;;2.85;1.70;;;;;;;20.89;60.15;99836.97;5047648;28;20499;-65
2022/05/24 12:01:09;;;;;;;5.13;2.25;;;;;;;20.83;61.18;99823.34;5047513;28;20043;-65
2022/05/24 12:09:23;;;;;;;5.80;1.90;;;;;;;20.87;61.84;99822.72;5027778;28;20040;-65
2022/05/24 12:12:21;;;;;;;6.43;2.10;;;;;;;20.98;61.61;99826.69;5027362;28;20021;-65
2022/05/24 12:15:04;;;;;;;5.65;2.53;;;;;;;21.01;61.66;99829.84;5040666;28;20390;-64
2022/05/24 12:17:29;;;;;;;2.92;1.77;;;;;;;21.02;61.95;99814.34;5045822;28;20727;-65
2022/05/24 12:19:56;;;;;;;5.22;1.95;;;;;;;21.09;61.09;99817.88;5026787;28;20026;-64
2022/05/24 12:22:27;;;;;;;5.00;2.20;;;;;;;21.14;60.84;99812.59;5026415;28;20037;-64
2022/05/24 12:24:57;;;;;;;1.92;1.58;;;;;;;21.09;61.04;99801.50;5039988;28;20094;-64
2022/05/24 12:27:47;;;;;;;3.40;1.70;;;;;;;21.09;61.06;99796.06;5047729;28;20077;-64
2022/05/24 12:30:30;;;;;;;2.92;2.20;;;;;;;21.17;60.70;99806.72;5046884;28;20024;-65
2022/05/24 12:33:08;;;;;;;3.50;1.95;;;;;;;21.15;61.13;99804.22;5045412;28;20041;-65